sensor_id;sensor_type;location;lat;lon;timestamp;temperature;humidity
53268;DHT22;39156;51.176;6.738;2023-12-07T00:01:34;1.40;89.60
53268;DHT22;39156;51.176;6.738;2023-12-07T00:04:00;1.40;89.60
53268;DHT22;39156;51.176;6.738;2023-12-07T00:06:26;1.30;89.60
53268;DHT22;39156;51.176;6.738;2023-12-07T00:08:52;1.30;89.60
53268;DHT22;39156;51.176;6.738;2023-12-07T00:11:18;1.30;89.70
53268;DHT22;39156;51.176;6.738;2023-12-07T00:13:43;1.40;89.70
53268;DHT22;39156;51.176;6.738;2023-12-07T00:16:10;1.30;89.70
53268;DHT22;39156;51.176;6.738;2023-12-07T00:18:35;1.30;89.70
53268;DHT22;39156;51.176;6.738;2023-12-07T00:21:01;1.20;89.60
53268;DHT22;39156;51.176;6.738;2023-12-07T00:23:27;1.30;89.70
53268;DHT22;39156;51.176;6.738;2023-12-07T00:25:52;1.30;89.70
53268;DHT22;39156;51.176;6.738;2023-12-07T00:28:18;1.20;89.70
53268;DHT22;39156;51.176;6.738;2023-12-07T00:30:44;1.30;89.60
53268;DHT22;39156;51.176;6.738;2023-12-07T00:33:09;1.20;89.30
53268;DHT22;39156;51.176;6.738;2023-12-07T00:35:35;1.20;89.10
53268;DHT22;39156;51.176;6.738;2023-12-07T00:38:02;1.30;89.00
53268;DHT22;39156;51.176;6.738;2023-12-07T00:40:27;1.10;89.10
53268;DHT22;39156;51.176;6.738;2023-12-07T00:42:53;1.10;89.20
53268;DHT22;39156;51.176;6.738;2023-12-07T00:45:19;1.10;89.40
53268;DHT22;39156;51.176;6.738;2023-12-07T00:47:45;1.00;89.80
53268;DHT22;39156;51.176;6.738;2023-12-07T00:50:13;1.00;89.80
53268;DHT22;39156;51.176;6.738;2023-12-07T00:52:40;1.10;90.00
53268;DHT22;39156;51.176;6.738;2023-12-07T00:55:05;1.10;90.10
53268;DHT22;39156;51.176;6.738;2023-12-07T00:57:31;1.10;90.10
53268;DHT22;39156;51.176;6.738;2023-12-07T00:59:57;0.90;90.40
53268;DHT22;39156;51.176;6.738;2023-12-07T01:02:23;0.90;90.20
53268;DHT22;39156;51.176;6.738;2023-12-07T01:04:49;1.10;90.20
53268;DHT22;39156;51.176;6.738;2023-12-07T01:07:15;0.90;90.10
53268;DHT22;39156;51.176;6.738;2023-12-07T01:09:40;1.00;90.00
53268;DHT22;39156;51.176;6.738;2023-12-07T01:12:06;1.10;89.70
53268;DHT22;39156;51.176;6.738;2023-12-07T01:14:32;0.90;89.50
53268;DHT22;39156;51.176;6.738;2023-12-07T01:16:58;1.00;89.70
53268;DHT22;39156;51.176;6.738;2023-12-07T01:19:23;0.90;89.60
53268;DHT22;39156;51.176;6.738;2023-12-07T01:21:50;1.00;89.50
53268;DHT22;39156;51.176;6.738;2023-12-07T01:24:16;0.90;89.20
53268;DHT22;39156;51.176;6.738;2023-12-07T01:26:41;0.90;89.00
53268;DHT22;39156;51.176;6.738;2023-12-07T01:29:07;0.90;89.10
53268;DHT22;39156;51.176;6.738;2023-12-07T01:31:33;0.90;88.90
53268;DHT22;39156;51.176;6.738;2023-12-07T01:33:59;0.80;88.70
53268;DHT22;39156;51.176;6.738;2023-12-07T01:36:25;0.90;88.80
53268;DHT22;39156;51.176;6.738;2023-12-07T01:38:50;0.80;88.80
53268;DHT22;39156;51.176;6.738;2023-12-07T01:41:16;0.90;88.60
53268;DHT22;39156;51.176;6.738;2023-12-07T01:43:45;0.80;88.30
53268;DHT22;39156;51.176;6.738;2023-12-07T01:46:12;0.80;88.30
53268;DHT22;39156;51.176;6.738;2023-12-07T01:48:38;0.70;88.20
53268;DHT22;39156;51.176;6.738;2023-12-07T01:51:04;0.70;88.20
53268;DHT22;39156;51.176;6.738;2023-12-07T01:53:30;0.70;88.00
53268;DHT22;39156;51.176;6.738;2023-12-07T01:55:56;0.60;87.90
53268;DHT22;39156;51.176;6.738;2023-12-07T01:58:22;0.60;87.90
53268;DHT22;39156;51.176;6.738;2023-12-07T02:00:48;0.50;87.90
53268;DHT22;39156;51.176;6.738;2023-12-07T02:03:16;0.60;88.30
53268;DHT22;39156;51.176;6.738;2023-12-07T02:05:43;0.60;88.60
53268;DHT22;39156;51.176;6.738;2023-12-07T02:08:11;0.50;88.70
53268;DHT22;39156;51.176;6.738;2023-12-07T02:10:37;0.60;89.00
53268;DHT22;39156;51.176;6.738;2023-12-07T02:13:03;0.50;89.10
53268;DHT22;39156;51.176;6.738;2023-12-07T02:15:29;0.50;89.20
53268;DHT22;39156;51.176;6.738;2023-12-07T02:20:59;0.40;89.20
53268;DHT22;39156;51.176;6.738;2023-12-07T02:23:32;0.50;89.20
53268;DHT22;39156;51.176;6.738;2023-12-07T02:26:02;0.50;89.30
53268;DHT22;39156;51.176;6.738;2023-12-07T02:28:29;0.50;89.40
53268;DHT22;39156;51.176;6.738;2023-12-07T02:30:55;0.40;89.50
53268;DHT22;39156;51.176;6.738;2023-12-07T02:33:21;0.40;89.40
53268;DHT22;39156;51.176;6.738;2023-12-07T02:35:46;0.40;89.40
53268;DHT22;39156;51.176;6.738;2023-12-07T02:38:12;0.40;89.40
53268;DHT22;39156;51.176;6.738;2023-12-07T02:40:40;0.50;89.50
53268;DHT22;39156;51.176;6.738;2023-12-07T02:43:06;0.40;89.40
53268;DHT22;39156;51.176;6.738;2023-12-07T02:45:33;0.40;89.40
53268;DHT22;39156;51.176;6.738;2023-12-07T02:47:59;0.50;89.60
53268;DHT22;39156;51.176;6.738;2023-12-07T02:50:25;0.40;89.90
53268;DHT22;39156;51.176;6.738;2023-12-07T02:52:51;0.40;89.90
53268;DHT22;39156;51.176;6.738;2023-12-07T02:55:16;0.30;90.20
53268;DHT22;39156;51.176;6.738;2023-12-07T02:57:42;0.50;90.20
53268;DHT22;39156;51.176;6.738;2023-12-07T03:00:08;0.40;90.20
53268;DHT22;39156;51.176;6.738;2023-12-07T03:02:39;0.50;90.30
53268;DHT22;39156;51.176;6.738;2023-12-07T03:05:06;0.50;90.30
53268;DHT22;39156;51.176;6.738;2023-12-07T03:07:33;0.40;90.40
53268;DHT22;39156;51.176;6.738;2023-12-07T03:09:59;0.40;90.50
53268;DHT22;39156;51.176;6.738;2023-12-07T03:12:25;0.40;90.50
53268;DHT22;39156;51.176;6.738;2023-12-07T03:14:51;0.50;90.60
53268;DHT22;39156;51.176;6.738;2023-12-07T03:17:17;0.50;90.60
53268;DHT22;39156;51.176;6.738;2023-12-07T03:19:42;0.40;90.60
53268;DHT22;39156;51.176;6.738;2023-12-07T03:22:09;0.50;90.60
53268;DHT22;39156;51.176;6.738;2023-12-07T03:24:36;0.60;90.70
53268;DHT22;39156;51.176;6.738;2023-12-07T03:27:02;0.50;90.60
53268;DHT22;39156;51.176;6.738;2023-12-07T03:29:28;0.50;90.50
53268;DHT22;39156;51.176;6.738;2023-12-07T03:31:54;0.50;90.30
53268;DHT22;39156;51.176;6.738;2023-12-07T03:34:20;0.50;90.30
53268;DHT22;39156;51.176;6.738;2023-12-07T03:36:46;0.50;90.30
53268;DHT22;39156;51.176;6.738;2023-12-07T03:39:13;0.40;90.20
53268;DHT22;39156;51.176;6.738;2023-12-07T03:41:39;0.40;90.30
53268;DHT22;39156;51.176;6.738;2023-12-07T03:44:05;0.50;90.40
53268;DHT22;39156;51.176;6.738;2023-12-07T03:46:31;0.50;90.20
53268;DHT22;39156;51.176;6.738;2023-12-07T03:48:56;0.50;90.30
53268;DHT22;39156;51.176;6.738;2023-12-07T03:51:22;0.50;90.30
53268;DHT22;39156;51.176;6.738;2023-12-07T03:53:48;0.60;90.40
53268;DHT22;39156;51.176;6.738;2023-12-07T03:56:28;0.60;90.40
53268;DHT22;39156;51.176;6.738;2023-12-07T03:58:55;0.70;90.40
53268;DHT22;39156;51.176;6.738;2023-12-07T04:01:26;0.70;90.40
53268;DHT22;39156;51.176;6.738;2023-12-07T04:03:54;0.70;90.40
53268;DHT22;39156;51.176;6.738;2023-12-07T04:06:21;0.80;90.50
53268;DHT22;39156;51.176;6.738;2023-12-07T04:08:47;0.90;90.50
53268;DHT22;39156;51.176;6.738;2023-12-07T04:11:14;1.00;90.70
53268;DHT22;39156;51.176;6.738;2023-12-07T04:13:40;1.00;90.60
53268;DHT22;39156;51.176;6.738;2023-12-07T04:16:07;1.00;90.60
53268;DHT22;39156;51.176;6.738;2023-12-07T04:18:33;1.00;90.60
53268;DHT22;39156;51.176;6.738;2023-12-07T04:20:59;1.10;90.60
53268;DHT22;39156;51.176;6.738;2023-12-07T04:23:25;1.10;90.50
53268;DHT22;39156;51.176;6.738;2023-12-07T04:25:51;1.10;90.50
53268;DHT22;39156;51.176;6.738;2023-12-07T04:28:17;1.20;90.50
53268;DHT22;39156;51.176;6.738;2023-12-07T04:30:43;1.20;90.60
53268;DHT22;39156;51.176;6.738;2023-12-07T04:33:08;1.20;90.60
53268;DHT22;39156;51.176;6.738;2023-12-07T04:35:34;1.40;90.70
53268;DHT22;39156;51.176;6.738;2023-12-07T04:38:00;1.40;90.70
53268;DHT22;39156;51.176;6.738;2023-12-07T04:40:26;1.30;90.60
53268;DHT22;39156;51.176;6.738;2023-12-07T04:42:52;1.40;90.70
53268;DHT22;39156;51.176;6.738;2023-12-07T04:45:18;1.50;90.60
53268;DHT22;39156;51.176;6.738;2023-12-07T04:47:44;1.50;90.50
53268;DHT22;39156;51.176;6.738;2023-12-07T04:50:10;1.50;90.50
53268;DHT22;39156;51.176;6.738;2023-12-07T04:52:36;1.50;90.50
53268;DHT22;39156;51.176;6.738;2023-12-07T04:55:02;1.60;90.50
53268;DHT22;39156;51.176;6.738;2023-12-07T04:57:28;1.60;90.50
53268;DHT22;39156;51.176;6.738;2023-12-07T04:59:53;1.50;90.50
53268;DHT22;39156;51.176;6.738;2023-12-07T05:02:19;1.70;90.50
53268;DHT22;39156;51.176;6.738;2023-12-07T05:04:45;1.60;90.50
53268;DHT22;39156;51.176;6.738;2023-12-07T05:07:11;1.70;90.50
53268;DHT22;39156;51.176;6.738;2023-12-07T05:09:38;1.70;90.40
53268;DHT22;39156;51.176;6.738;2023-12-07T05:12:05;1.80;90.40
53268;DHT22;39156;51.176;6.738;2023-12-07T05:14:33;1.80;90.40
53268;DHT22;39156;51.176;6.738;2023-12-07T05:17:00;1.80;90.50
53268;DHT22;39156;51.176;6.738;2023-12-07T05:19:29;1.80;90.40
53268;DHT22;39156;51.176;6.738;2023-12-07T05:21:55;1.80;90.70
53268;DHT22;39156;51.176;6.738;2023-12-07T05:24:20;2.00;90.40
53268;DHT22;39156;51.176;6.738;2023-12-07T05:26:46;2.00;90.40
53268;DHT22;39156;51.176;6.738;2023-12-07T05:29:12;1.90;90.30
53268;DHT22;39156;51.176;6.738;2023-12-07T05:31:39;1.90;90.40
53268;DHT22;39156;51.176;6.738;2023-12-07T05:34:05;2.10;90.40
53268;DHT22;39156;51.176;6.738;2023-12-07T05:36:32;2.00;90.30
53268;DHT22;39156;51.176;6.738;2023-12-07T05:38:57;1.90;90.30
53268;DHT22;39156;51.176;6.738;2023-12-07T05:41:23;2.00;90.30
53268;DHT22;39156;51.176;6.738;2023-12-07T05:43:49;2.00;90.30
53268;DHT22;39156;51.176;6.738;2023-12-07T05:46:15;2.10;90.30
53268;DHT22;39156;51.176;6.738;2023-12-07T05:48:41;2.00;90.30
53268;DHT22;39156;51.176;6.738;2023-12-07T05:51:15;2.10;90.20
53268;DHT22;39156;51.176;6.738;2023-12-07T05:53:42;2.20;90.20
53268;DHT22;39156;51.176;6.738;2023-12-07T05:56:08;2.10;90.10
53268;DHT22;39156;51.176;6.738;2023-12-07T05:58:35;2.10;90.20
53268;DHT22;39156;51.176;6.738;2023-12-07T06:01:01;2.10;90.10
53268;DHT22;39156;51.176;6.738;2023-12-07T06:03:28;2.10;90.10
53268;DHT22;39156;51.176;6.738;2023-12-07T06:05:54;2.00;90.00
53268;DHT22;39156;51.176;6.738;2023-12-07T06:08:19;2.00;89.90
53268;DHT22;39156;51.176;6.738;2023-12-07T06:10:45;2.10;89.90
53268;DHT22;39156;51.176;6.738;2023-12-07T06:13:12;2.00;90.00
53268;DHT22;39156;51.176;6.738;2023-12-07T06:15:39;2.00;89.90
53268;DHT22;39156;51.176;6.738;2023-12-07T06:18:05;1.90;89.80
53268;DHT22;39156;51.176;6.738;2023-12-07T06:20:31;1.90;89.70
53268;DHT22;39156;51.176;6.738;2023-12-07T06:22:57;1.90;89.80
53268;DHT22;39156;51.176;6.738;2023-12-07T06:25:23;1.80;89.80
53268;DHT22;39156;51.176;6.738;2023-12-07T06:27:49;1.90;89.80
53268;DHT22;39156;51.176;6.738;2023-12-07T06:30:15;1.90;89.90
53268;DHT22;39156;51.176;6.738;2023-12-07T06:32:41;1.90;89.90
53268;DHT22;39156;51.176;6.738;2023-12-07T06:35:07;1.80;90.00
53268;DHT22;39156;51.176;6.738;2023-12-07T06:37:33;1.80;90.00
53268;DHT22;39156;51.176;6.738;2023-12-07T06:39:59;1.90;90.00
53268;DHT22;39156;51.176;6.738;2023-12-07T06:42:26;1.90;90.00
53268;DHT22;39156;51.176;6.738;2023-12-07T06:44:52;1.80;90.00
53268;DHT22;39156;51.176;6.738;2023-12-07T06:47:18;1.90;90.00
53268;DHT22;39156;51.176;6.738;2023-12-07T06:49:44;1.80;89.90
53268;DHT22;39156;51.176;6.738;2023-12-07T06:52:11;1.90;89.80
53268;DHT22;39156;51.176;6.738;2023-12-07T06:54:38;1.80;89.80
53268;DHT22;39156;51.176;6.738;2023-12-07T06:57:06;1.80;89.70
53268;DHT22;39156;51.176;6.738;2023-12-07T06:59:33;1.80;89.50
53268;DHT22;39156;51.176;6.738;2023-12-07T07:01:59;1.90;89.40
53268;DHT22;39156;51.176;6.738;2023-12-07T07:04:25;1.80;89.30
53268;DHT22;39156;51.176;6.738;2023-12-07T07:06:52;1.80;89.50
53268;DHT22;39156;51.176;6.738;2023-12-07T07:09:19;1.80;89.50
53268;DHT22;39156;51.176;6.738;2023-12-07T07:11:50;1.70;89.60
53268;DHT22;39156;51.176;6.738;2023-12-07T07:14:17;1.80;89.70
53268;DHT22;39156;51.176;6.738;2023-12-07T07:16:42;1.70;89.80
53268;DHT22;39156;51.176;6.738;2023-12-07T07:19:08;1.70;90.10
53268;DHT22;39156;51.176;6.738;2023-12-07T07:21:34;1.70;89.70
53268;DHT22;39156;51.176;6.738;2023-12-07T07:23:59;1.80;89.60
53268;DHT22;39156;51.176;6.738;2023-12-07T07:26:25;1.70;89.60
53268;DHT22;39156;51.176;6.738;2023-12-07T07:28:52;1.80;89.60
53268;DHT22;39156;51.176;6.738;2023-12-07T07:31:18;1.70;89.40
53268;DHT22;39156;51.176;6.738;2023-12-07T07:33:44;1.80;89.40
53268;DHT22;39156;51.176;6.738;2023-12-07T07:36:12;1.80;89.20
53268;DHT22;39156;51.176;6.738;2023-12-07T07:38:40;1.80;89.20
53268;DHT22;39156;51.176;6.738;2023-12-07T07:41:06;1.80;89.20
53268;DHT22;39156;51.176;6.738;2023-12-07T07:43:32;1.70;89.20
53268;DHT22;39156;51.176;6.738;2023-12-07T07:45:59;1.70;89.20
53268;DHT22;39156;51.176;6.738;2023-12-07T07:48:25;1.70;89.30
53268;DHT22;39156;51.176;6.738;2023-12-07T07:50:51;1.60;89.20
53268;DHT22;39156;51.176;6.738;2023-12-07T07:53:17;1.80;89.30
53268;DHT22;39156;51.176;6.738;2023-12-07T07:55:43;1.70;89.30
53268;DHT22;39156;51.176;6.738;2023-12-07T07:58:08;1.60;89.30
53268;DHT22;39156;51.176;6.738;2023-12-07T08:00:35;1.70;89.30
53268;DHT22;39156;51.176;6.738;2023-12-07T08:03:00;1.70;89.20
53268;DHT22;39156;51.176;6.738;2023-12-07T08:05:26;1.70;89.00
53268;DHT22;39156;51.176;6.738;2023-12-07T08:07:51;1.70;89.00
53268;DHT22;39156;51.176;6.738;2023-12-07T08:10:17;1.60;88.90
53268;DHT22;39156;51.176;6.738;2023-12-07T08:12:43;1.70;88.80
53268;DHT22;39156;51.176;6.738;2023-12-07T08:15:10;1.70;88.70
53268;DHT22;39156;51.176;6.738;2023-12-07T08:17:40;1.60;88.50
53268;DHT22;39156;51.176;6.738;2023-12-07T08:20:08;1.70;88.60
53268;DHT22;39156;51.176;6.738;2023-12-07T08:22:38;1.70;88.70
53268;DHT22;39156;51.176;6.738;2023-12-07T08:25:04;1.60;88.70
53268;DHT22;39156;51.176;6.738;2023-12-07T08:27:34;1.60;89.00
53268;DHT22;39156;51.176;6.738;2023-12-07T08:30:00;1.70;89.70
53268;DHT22;39156;51.176;6.738;2023-12-07T08:32:26;1.60;89.30
53268;DHT22;39156;51.176;6.738;2023-12-07T08:34:53;1.70;89.90
53268;DHT22;39156;51.176;6.738;2023-12-07T08:37:18;1.80;90.20
53268;DHT22;39156;51.176;6.738;2023-12-07T08:39:45;2.10;90.50
53268;DHT22;39156;51.176;6.738;2023-12-07T08:42:11;2.40;89.60
53268;DHT22;39156;51.176;6.738;2023-12-07T08:44:37;2.50;90.30
53268;DHT22;39156;51.176;6.738;2023-12-07T08:47:03;2.80;90.10
53268;DHT22;39156;51.176;6.738;2023-12-07T08:49:29;3.10;89.80
53268;DHT22;39156;51.176;6.738;2023-12-07T08:51:55;3.50;89.40
53268;DHT22;39156;51.176;6.738;2023-12-07T08:54:21;3.70;88.50
53268;DHT22;39156;51.176;6.738;2023-12-07T08:56:47;4.10;88.10
53268;DHT22;39156;51.176;6.738;2023-12-07T08:59:13;4.20;87.60
53268;DHT22;39156;51.176;6.738;2023-12-07T09:01:38;4.50;86.50
53268;DHT22;39156;51.176;6.738;2023-12-07T09:04:04;4.80;85.20
53268;DHT22;39156;51.176;6.738;2023-12-07T09:06:30;4.90;84.80
53268;DHT22;39156;51.176;6.738;2023-12-07T09:08:56;5.10;84.20
53268;DHT22;39156;51.176;6.738;2023-12-07T09:11:22;5.40;84.10
53268;DHT22;39156;51.176;6.738;2023-12-07T09:13:48;5.50;83.20
53268;DHT22;39156;51.176;6.738;2023-12-07T09:16:14;5.70;81.80
53268;DHT22;39156;51.176;6.738;2023-12-07T09:18:41;5.90;81.30
53268;DHT22;39156;51.176;6.738;2023-12-07T09:21:07;6.00;81.20
53268;DHT22;39156;51.176;6.738;2023-12-07T09:23:34;6.20;81.50
53268;DHT22;39156;51.176;6.738;2023-12-07T09:26:00;6.40;81.60
53268;DHT22;39156;51.176;6.738;2023-12-07T09:28:26;6.50;81.20
53268;DHT22;39156;51.176;6.738;2023-12-07T09:30:52;6.60;82.00
53268;DHT22;39156;51.176;6.738;2023-12-07T09:33:18;6.80;81.10
53268;DHT22;39156;51.176;6.738;2023-12-07T09:35:43;7.00;81.00
53268;DHT22;39156;51.176;6.738;2023-12-07T09:38:09;7.00;80.60
53268;DHT22;39156;51.176;6.738;2023-12-07T09:40:35;7.20;80.20
53268;DHT22;39156;51.176;6.738;2023-12-07T09:43:01;7.30;79.20
53268;DHT22;39156;51.176;6.738;2023-12-07T09:45:27;7.40;78.10
53268;DHT22;39156;51.176;6.738;2023-12-07T09:47:54;7.50;78.10
53268;DHT22;39156;51.176;6.738;2023-12-07T09:50:24;7.60;77.60
53268;DHT22;39156;51.176;6.738;2023-12-07T09:52:52;7.70;76.80
53268;DHT22;39156;51.176;6.738;2023-12-07T09:55:19;7.70;76.30
53268;DHT22;39156;51.176;6.738;2023-12-07T09:57:46;7.80;77.10
53268;DHT22;39156;51.176;6.738;2023-12-07T10:00:12;7.80;76.40
53268;DHT22;39156;51.176;6.738;2023-12-07T10:02:40;7.80;75.90
53268;DHT22;39156;51.176;6.738;2023-12-07T10:05:08;7.80;75.50
53268;DHT22;39156;51.176;6.738;2023-12-07T10:07:42;7.80;75.40
53268;DHT22;39156;51.176;6.738;2023-12-07T10:10:10;7.80;75.10
53268;DHT22;39156;51.176;6.738;2023-12-07T10:12:54;7.70;73.70
53268;DHT22;39156;51.176;6.738;2023-12-07T10:15:22;7.70;73.20
53268;DHT22;39156;51.176;6.738;2023-12-07T10:20:19;7.60;74.10
53268;DHT22;39156;51.176;6.738;2023-12-07T10:23:01;7.60;74.30
53268;DHT22;39156;51.176;6.738;2023-12-07T10:25:37;7.60;74.10
53268;DHT22;39156;51.176;6.738;2023-12-07T10:28:04;7.60;73.90
53268;DHT22;39156;51.176;6.738;2023-12-07T10:30:33;7.60;73.90
53268;DHT22;39156;51.176;6.738;2023-12-07T10:32:59;7.50;74.20
53268;DHT22;39156;51.176;6.738;2023-12-07T10:35:25;7.50;73.50
53268;DHT22;39156;51.176;6.738;2023-12-07T10:37:51;7.50;73.50
53268;DHT22;39156;51.176;6.738;2023-12-07T10:40:17;7.40;74.10
53268;DHT22;39156;51.176;6.738;2023-12-07T10:42:48;7.30;74.30
53268;DHT22;39156;51.176;6.738;2023-12-07T10:45:15;7.40;73.30
53268;DHT22;39156;51.176;6.738;2023-12-07T10:47:41;7.40;73.80
53268;DHT22;39156;51.176;6.738;2023-12-07T10:50:10;7.30;72.10
53268;DHT22;39156;51.176;6.738;2023-12-07T10:52:53;7.30;73.00
53268;DHT22;39156;51.176;6.738;2023-12-07T10:55:21;7.10;72.80
53268;DHT22;39156;51.176;6.738;2023-12-07T10:57:52;7.10;73.60
53268;DHT22;39156;51.176;6.738;2023-12-07T11:00:22;7.10;73.60
53268;DHT22;39156;51.176;6.738;2023-12-07T11:02:50;7.10;73.70
53268;DHT22;39156;51.176;6.738;2023-12-07T11:05:17;7.00;73.40
53268;DHT22;39156;51.176;6.738;2023-12-07T11:08:07;6.90;73.10
53268;DHT22;39156;51.176;6.738;2023-12-07T11:10:52;6.60;72.90
53268;DHT22;39156;51.176;6.738;2023-12-07T11:13:32;6.50;72.70
53268;DHT22;39156;51.176;6.738;2023-12-07T11:16:03;6.20;73.10
53268;DHT22;39156;51.176;6.738;2023-12-07T11:18:29;6.20;73.50
53268;DHT22;39156;51.176;6.738;2023-12-07T11:20:55;6.00;73.90
53268;DHT22;39156;51.176;6.738;2023-12-07T11:23:22;5.80;73.70
53268;DHT22;39156;51.176;6.738;2023-12-07T11:25:49;5.60;74.20
53268;DHT22;39156;51.176;6.738;2023-12-07T11:28:17;5.50;74.80
53268;DHT22;39156;51.176;6.738;2023-12-07T11:30:44;5.30;75.40
53268;DHT22;39156;51.176;6.738;2023-12-07T11:33:11;5.20;75.20
53268;DHT22;39156;51.176;6.738;2023-12-07T11:38:28;5.10;75.80
53268;DHT22;39156;51.176;6.738;2023-12-07T11:40:55;5.00;76.00
53268;DHT22;39156;51.176;6.738;2023-12-07T11:46:01;4.80;76.60
53268;DHT22;39156;51.176;6.738;2023-12-07T11:48:27;4.70;76.60
53268;DHT22;39156;51.176;6.738;2023-12-07T11:51:04;4.70;77.20
53268;DHT22;39156;51.176;6.738;2023-12-07T11:53:37;4.80;77.20
53268;DHT22;39156;51.176;6.738;2023-12-07T11:56:07;4.70;77.30
53268;DHT22;39156;51.176;6.738;2023-12-07T11:58:36;4.50;76.70
53268;DHT22;39156;51.176;6.738;2023-12-07T12:01:02;4.60;76.80
53268;DHT22;39156;51.176;6.738;2023-12-07T12:03:29;4.50;76.90
53268;DHT22;39156;51.176;6.738;2023-12-07T12:05:57;4.50;76.90
53268;DHT22;39156;51.176;6.738;2023-12-07T12:08:23;4.40;77.00
53268;DHT22;39156;51.176;6.738;2023-12-07T12:10:50;4.30;77.00
53268;DHT22;39156;51.176;6.738;2023-12-07T12:13:18;4.20;77.20
53268;DHT22;39156;51.176;6.738;2023-12-07T12:15:45;4.10;77.50
53268;DHT22;39156;51.176;6.738;2023-12-07T12:18:14;4.00;77.90
53268;DHT22;39156;51.176;6.738;2023-12-07T12:20:41;4.00;78.10
53268;DHT22;39156;51.176;6.738;2023-12-07T12:23:08;4.20;78.50
53268;DHT22;39156;51.176;6.738;2023-12-07T12:25:34;3.90;78.40
53268;DHT22;39156;51.176;6.738;2023-12-07T12:28:04;3.90;78.70
53268;DHT22;39156;51.176;6.738;2023-12-07T12:30:31;4.00;78.80
53268;DHT22;39156;51.176;6.738;2023-12-07T12:32:57;3.80;78.80
53268;DHT22;39156;51.176;6.738;2023-12-07T12:35:25;3.80;78.90
53268;DHT22;39156;51.176;6.738;2023-12-07T12:37:51;3.90;79.10
53268;DHT22;39156;51.176;6.738;2023-12-07T12:40:18;3.80;79.20
53268;DHT22;39156;51.176;6.738;2023-12-07T12:42:47;3.90;79.30
53268;DHT22;39156;51.176;6.738;2023-12-07T12:45:15;3.80;79.30
53268;DHT22;39156;51.176;6.738;2023-12-07T12:47:41;3.80;79.30
53268;DHT22;39156;51.176;6.738;2023-12-07T12:50:09;3.90;79.50
53268;DHT22;39156;51.176;6.738;2023-12-07T12:52:36;3.90;79.30
53268;DHT22;39156;51.176;6.738;2023-12-07T12:55:07;3.90;79.40
53268;DHT22;39156;51.176;6.738;2023-12-07T12:57:37;3.90;79.40
53268;DHT22;39156;51.176;6.738;2023-12-07T13:00:04;4.00;79.60
53268;DHT22;39156;51.176;6.738;2023-12-07T13:02:32;4.00;79.50
53268;DHT22;39156;51.176;6.738;2023-12-07T13:04:59;3.90;79.20
53268;DHT22;39156;51.176;6.738;2023-12-07T13:07:25;4.00;79.70
53268;DHT22;39156;51.176;6.738;2023-12-07T13:09:51;4.10;79.50
53268;DHT22;39156;51.176;6.738;2023-12-07T13:12:17;4.10;79.40
53268;DHT22;39156;51.176;6.738;2023-12-07T13:14:42;4.10;79.50
53268;DHT22;39156;51.176;6.738;2023-12-07T13:17:08;4.10;79.50
53268;DHT22;39156;51.176;6.738;2023-12-07T13:19:34;4.10;79.40
53268;DHT22;39156;51.176;6.738;2023-12-07T13:22:01;4.10;79.40
53268;DHT22;39156;51.176;6.738;2023-12-07T13:24:28;4.20;79.40
53268;DHT22;39156;51.176;6.738;2023-12-07T13:26:54;4.10;79.10
53268;DHT22;39156;51.176;6.738;2023-12-07T13:29:21;4.20;79.20
53268;DHT22;39156;51.176;6.738;2023-12-07T13:31:48;4.10;79.00
53268;DHT22;39156;51.176;6.738;2023-12-07T13:34:15;4.10;78.80
53268;DHT22;39156;51.176;6.738;2023-12-07T13:36:41;4.10;78.90
53268;DHT22;39156;51.176;6.738;2023-12-07T13:39:06;4.20;78.90
53268;DHT22;39156;51.176;6.738;2023-12-07T13:41:34;4.10;78.70
53268;DHT22;39156;51.176;6.738;2023-12-07T13:44:00;4.10;78.70
53268;DHT22;39156;51.176;6.738;2023-12-07T13:46:27;4.10;79.10
53268;DHT22;39156;51.176;6.738;2023-12-07T13:48:52;4.20;79.40
53268;DHT22;39156;51.176;6.738;2023-12-07T13:51:18;4.20;79.50
53268;DHT22;39156;51.176;6.738;2023-12-07T13:53:45;4.20;79.30
53268;DHT22;39156;51.176;6.738;2023-12-07T13:56:11;4.20;78.80
53268;DHT22;39156;51.176;6.738;2023-12-07T13:58:37;4.10;79.00
53268;DHT22;39156;51.176;6.738;2023-12-07T14:01:04;4.20;79.20
53268;DHT22;39156;51.176;6.738;2023-12-07T14:03:30;4.20;79.30
53268;DHT22;39156;51.176;6.738;2023-12-07T14:05:56;4.20;79.40
53268;DHT22;39156;51.176;6.738;2023-12-07T14:08:22;4.10;79.30
53268;DHT22;39156;51.176;6.738;2023-12-07T14:10:47;4.10;79.40
53268;DHT22;39156;51.176;6.738;2023-12-07T14:13:13;4.20;79.30
53268;DHT22;39156;51.176;6.738;2023-12-07T14:15:39;4.30;79.20
53268;DHT22;39156;51.176;6.738;2023-12-07T14:18:06;4.20;79.20
53268;DHT22;39156;51.176;6.738;2023-12-07T14:20:31;4.10;79.10
53268;DHT22;39156;51.176;6.738;2023-12-07T14:22:58;4.20;79.10
53268;DHT22;39156;51.176;6.738;2023-12-07T14:25:29;4.20;79.00
53268;DHT22;39156;51.176;6.738;2023-12-07T14:27:55;4.10;78.70
53268;DHT22;39156;51.176;6.738;2023-12-07T14:30:21;4.00;78.50
53268;DHT22;39156;51.176;6.738;2023-12-07T14:32:47;4.10;78.50
53268;DHT22;39156;51.176;6.738;2023-12-07T14:35:18;4.00;78.60
53268;DHT22;39156;51.176;6.738;2023-12-07T14:37:44;4.00;79.00
53268;DHT22;39156;51.176;6.738;2023-12-07T14:40:10;3.80;78.80
53268;DHT22;39156;51.176;6.738;2023-12-07T14:42:37;4.00;78.90
53268;DHT22;39156;51.176;6.738;2023-12-07T14:45:03;3.90;78.90
53268;DHT22;39156;51.176;6.738;2023-12-07T14:47:30;3.90;79.10
53268;DHT22;39156;51.176;6.738;2023-12-07T14:49:55;3.80;79.10
53268;DHT22;39156;51.176;6.738;2023-12-07T14:52:21;3.90;79.20
53268;DHT22;39156;51.176;6.738;2023-12-07T14:54:47;3.80;79.10
53268;DHT22;39156;51.176;6.738;2023-12-07T14:57:13;3.70;79.20
53268;DHT22;39156;51.176;6.738;2023-12-07T14:59:38;3.80;79.30
53268;DHT22;39156;51.176;6.738;2023-12-07T15:02:05;3.60;79.30
53268;DHT22;39156;51.176;6.738;2023-12-07T15:04:31;3.80;79.50
53268;DHT22;39156;51.176;6.738;2023-12-07T15:06:57;3.60;79.40
53268;DHT22;39156;51.176;6.738;2023-12-07T15:09:22;3.70;79.40
53268;DHT22;39156;51.176;6.738;2023-12-07T15:11:48;3.50;79.40
53268;DHT22;39156;51.176;6.738;2023-12-07T15:14:14;3.50;79.40
53268;DHT22;39156;51.176;6.738;2023-12-07T15:16:39;3.40;79.50
53268;DHT22;39156;51.176;6.738;2023-12-07T15:19:05;3.50;79.60
53268;DHT22;39156;51.176;6.738;2023-12-07T15:21:31;3.40;79.50
53268;DHT22;39156;51.176;6.738;2023-12-07T15:23:58;3.50;79.60
53268;DHT22;39156;51.176;6.738;2023-12-07T15:26:24;3.40;79.50
53268;DHT22;39156;51.176;6.738;2023-12-07T15:28:50;3.30;79.40
53268;DHT22;39156;51.176;6.738;2023-12-07T15:31:16;3.30;79.50
53268;DHT22;39156;51.176;6.738;2023-12-07T15:33:41;3.30;79.50
53268;DHT22;39156;51.176;6.738;2023-12-07T15:36:07;3.30;79.60
53268;DHT22;39156;51.176;6.738;2023-12-07T15:38:33;3.30;79.70
53268;DHT22;39156;51.176;6.738;2023-12-07T15:40:58;3.30;79.80
53268;DHT22;39156;51.176;6.738;2023-12-07T15:43:28;3.20;79.60
53268;DHT22;39156;51.176;6.738;2023-12-07T15:45:56;3.30;79.50
53268;DHT22;39156;51.176;6.738;2023-12-07T15:48:22;3.30;79.50
53268;DHT22;39156;51.176;6.738;2023-12-07T15:50:48;3.30;79.70
53268;DHT22;39156;51.176;6.738;2023-12-07T15:53:15;3.20;79.70